Mondai, Brazil
Current Conditions -  °F | °C
As of 5:00 AM on Tuesday 21 Oct 2014 (Local Time) from SBCH Reporting Station
Clear Clear  
Wind Chill: 57°   Ceiling: Unl
Heat Index: 57°   Visibility: 6mi
Dew Point: 55°   Wind: 17mph
Humidity: 94%   Direction: 150°SSE
Pressure: 30.09"   Gusts: NA
Location:  27.1°S, 53.4°W
Report Text: SBCH 210700Z 15015KT CAVOK 14/13 Q1019
Loading
Personal Weather Stations






























Interactive Weather Map
Tropical Storm Tracking
New forecast layout! Learn more

10-Day Weather Forecast

Advertisements
Track Severe Weather on mobile